« Back
NWS Peachtree City, Ga » Text Product » MCN Terminal Aerodrome Forecast


Printer-friendly Version
Current Version              Previous Versions:   1  2  3  4  5  6  7  8  9  

Terminal Aerodrome Forecast

784
FTUS42 KFFC 261135
TAFMCN
TAF
KMCN 261135Z 2612/2712 14004KT P6SM OVC009
     FM261500 15005KT P6SM OVC025
     FM261800 16007KT P6SM -SHRA OVC035 PROB30 2621/2624 3SM TSRA BR
      OVC015CB
     FM270000 15006KT P6SM VCSH SCT030 BKN045
     FM270600 12005KT P6SM BKN012=



USA.gov is the U.S. government's official web portal to all federal, state and local government web resources and services.